Time;durP1;ratioP1;P1;durP2;ratioP2;P2;SDS_P1;SDS_P2;PMS_P1;PMS_P2;Temp;Humidity;BMP_temperature;BMP_pressure;BME280_temperature;BME280_humidity;BME280_pressure;Samples;Min_cycle;Max_cycle;Signal;HPM_P1;HPM_P2
2023/12/17 00:01:25;;;;;;;11.55;6.57;;;10.30;99.90;;;;;;5046558;28;20037;-74
2023/12/17 00:03:51;;;;;;;9.40;6.28;;;10.30;99.90;;;;;;5042771;28;20060;-74
2023/12/17 00:06:17;;;;;;;14.07;6.00;;;10.30;99.90;;;;;;5043421;28;20060;-73
2023/12/17 00:08:43;;;;;;;10.65;6.07;;;10.30;99.90;;;;;;5044414;28;20037;-74
2023/12/17 00:11:09;;;;;;;10.18;5.95;;;10.30;99.90;;;;;;5038109;28;20045;-74
2023/12/17 00:13:35;;;;;;;10.20;5.30;;;10.30;99.90;;;;;;5052560;28;20102;-74
2023/12/17 00:16:05;;;;;;;10.30;7.22;;;10.30;99.90;;;;;;5041776;28;20033;-74
2023/12/17 00:18:30;;;;;;;9.07;5.75;;;10.30;99.90;;;;;;5041093;28;20064;-74
2023/12/17 00:20:56;;;;;;;11.98;5.97;;;10.30;99.90;;;;;;5041781;28;20373;-74
2023/12/17 00:23:21;;;;;;;9.75;5.20;;;10.40;99.90;;;;;;5048446;28;20048;-74
2023/12/17 00:25:47;;;;;;;13.15;7.18;;;10.30;99.90;;;;;;5042720;28;20040;-74
2023/12/17 00:28:13;;;;;;;10.15;5.40;;;10.40;99.90;;;;;;5044360;28;20137;-74
2023/12/17 00:30:38;;;;;;;9.98;6.50;;;10.40;99.90;;;;;;5044167;28;20044;-74
2023/12/17 00:33:04;;;;;;;10.70;5.22;;;10.30;99.90;;;;;;5045142;28;20046;-74
2023/12/17 00:35:30;;;;;;;10.23;5.53;;;10.30;99.90;;;;;;5041028;28;20454;-74
2023/12/17 00:37:55;;;;;;;8.68;5.93;;;10.30;99.90;;;;;;5036432;28;20056;-74
2023/12/17 00:40:21;;;;;;;9.85;5.57;;;10.30;99.90;;;;;;5033969;28;20136;-74
2023/12/17 00:42:47;;;;;;;10.15;5.57;;;10.30;99.90;;;;;;5034357;28;20072;-74
2023/12/17 00:45:13;;;;;;;9.93;5.10;;;10.30;99.90;;;;;;5037840;28;20497;-74
2023/12/17 00:47:38;;;;;;;12.15;5.30;;;10.40;99.90;;;;;;5038247;28;20049;-74
2023/12/17 00:50:04;;;;;;;8.70;5.03;;;10.40;99.90;;;;;;5044211;28;20041;-74
2023/12/17 00:52:31;;;;;;;7.85;5.20;;;10.40;99.90;;;;;;5033029;28;20049;-74
2023/12/17 00:54:56;;;;;;;10.00;5.15;;;10.40;99.90;;;;;;5030917;28;20761;-74
2023/12/17 00:57:22;;;;;;;9.80;5.15;;;10.40;99.90;;;;;;5036055;28;20045;-73
2023/12/17 00:59:47;;;;;;;11.50;6.13;;;10.40;99.90;;;;;;5042163;28;20099;-74
2023/12/17 01:02:13;;;;;;;9.95;5.25;;;10.30;99.90;;;;;;5035218;28;20567;-74
2023/12/17 01:04:39;;;;;;;10.23;5.78;;;10.30;99.90;;;;;;5037422;28;20128;-74
2023/12/17 01:07:04;;;;;;;13.07;7.30;;;10.30;99.90;;;;;;5034564;28;20049;-75
2023/12/17 01:09:30;;;;;;;10.30;5.30;;;10.30;99.90;;;;;;5036565;28;20037;-74
2023/12/17 01:11:57;;;;;;;13.00;8.98;;;10.30;99.90;;;;;;5037233;28;20053;-74
2023/12/17 01:14:24;;;;;;;9.18;6.05;;;10.40;99.90;;;;;;5033324;28;20444;-74
2023/12/17 01:16:50;;;;;;;13.38;6.80;;;10.40;99.90;;;;;;5034303;28;20033;-74
2023/12/17 01:19:16;;;;;;;10.65;5.85;;;10.30;99.90;;;;;;5033802;28;20667;-74
2023/12/17 01:21:41;;;;;;;12.05;6.15;;;10.40;99.90;;;;;;5035443;28;20052;-73
2023/12/17 01:24:07;;;;;;;10.85;5.43;;;10.30;99.90;;;;;;5038545;28;20052;-74
2023/12/17 01:26:35;;;;;;;11.23;6.55;;;10.30;99.90;;;;;;5038188;28;20052;-74
2023/12/17 01:29:00;;;;;;;14.50;6.13;;;10.30;99.90;;;;;;5042975;28;20053;-73
2023/12/17 01:31:26;;;;;;;8.85;5.75;;;10.30;99.90;;;;;;5042247;28;20029;-74
2023/12/17 01:33:51;;;;;;;11.43;6.57;;;10.30;99.90;;;;;;5061284;28;20393;-74
2023/12/17 01:36:17;;;;;;;10.10;5.57;;;10.30;99.90;;;;;;5052099;28;20033;-74
2023/12/17 01:38:43;;;;;;;10.32;6.10;;;10.40;99.90;;;;;;5044091;28;20049;-73
2023/12/17 01:41:08;;;;;;;8.77;6.38;;;10.30;99.90;;;;;;5038115;28;20041;-74
2023/12/17 01:43:34;;;;;;;10.13;5.97;;;10.30;99.90;;;;;;5039046;28;20041;-74
2023/12/17 01:46:00;;;;;;;9.35;5.75;;;10.30;99.90;;;;;;5041688;28;20033;-74
2023/12/17 01:48:26;;;;;;;10.13;6.88;;;10.30;99.90;;;;;;5040403;28;20048;-73
2023/12/17 01:50:54;;;;;;;13.20;6.20;;;10.30;99.90;;;;;;5043570;28;20041;-73
2023/12/17 01:53:19;;;;;;;11.73;6.13;;;10.30;99.90;;;;;;5071617;28;20477;-74
2023/12/17 01:55:46;;;;;;;9.20;6.15;;;10.30;99.90;;;;;;5046360;28;20086;-74
2023/12/17 01:58:14;;;;;;;11.33;6.27;;;10.40;99.90;;;;;;5041938;28;20041;-73
2023/12/17 02:00:43;;;;;;;14.20;10.00;;;10.30;99.90;;;;;;5034093;28;20090;-74
2023/12/17 02:03:08;;;;;;;15.13;6.72;;;10.40;99.90;;;;;;5043373;28;20059;-73
2023/12/17 02:05:35;;;;;;;14.70;9.98;;;10.40;99.90;;;;;;5035937;28;20436;-74
2023/12/17 02:08:02;;;;;;;13.85;9.63;;;10.40;99.90;;;;;;5044777;28;20041;-74
2023/12/17 02:10:29;;;;;;;12.25;9.73;;;10.40;99.90;;;;;;5037409;28;20033;-74
2023/12/17 02:12:54;;;;;;;15.85;10.35;;;10.40;99.90;;;;;;5042996;28;20087;-73
2023/12/17 02:15:20;;;;;;;13.65;9.90;;;10.40;99.90;;;;;;5051703;28;20056;-74
2023/12/17 02:17:46;;;;;;;15.50;10.00;;;10.40;99.90;;;;;;5045320;28;20048;-73
2023/12/17 02:20:11;;;;;;;12.10;6.10;;;10.40;99.90;;;;;;5045983;28;20044;-74
2023/12/17 02:22:38;;;;;;;11.00;5.88;;;10.40;99.90;;;;;;5043218;28;20075;-74
2023/12/17 02:25:05;;;;;;;10.13;5.47;;;10.40;99.90;;;;;;5040906;28;20045;-74
2023/12/17 02:27:31;;;;;;;11.90;6.70;;;10.30;99.90;;;;;;5047178;28;20750;-74
2023/12/17 02:29:56;;;;;;;15.02;8.82;;;10.30;99.90;;;;;;5038945;28;20050;-73
2023/12/17 02:32:23;;;;;;;11.88;5.53;;;10.30;99.90;;;;;;5047324;28;20087;-74
2023/12/17 02:34:52;;;;;;;10.90;6.00;;;10.30;99.90;;;;;;5045265;28;20045;-74
2023/12/17 02:37:18;;;;;;;11.05;5.82;;;10.30;99.90;;;;;;5046252;28;20115;-74
2023/12/17 02:39:44;;;;;;;11.27;6.10;;;10.30;99.90;;;;;;5045233;28;20073;-74
2023/12/17 02:42:10;;;;;;;11.02;6.25;;;10.30;99.90;;;;;;5041112;28;20127;-74
2023/12/17 02:44:36;;;;;;;10.30;5.07;;;10.30;99.90;;;;;;5040794;28;20710;-74
2023/12/17 02:47:02;;;;;;;11.20;6.15;;;10.30;99.90;;;;;;5045061;28;20041;-74
2023/12/17 02:49:28;;;;;;;11.48;5.95;;;10.30;99.90;;;;;;5044138;28;20044;-74
2023/12/17 02:51:55;;;;;;;14.40;5.82;;;10.30;99.90;;;;;;5044385;28;20037;-73
2023/12/17 02:54:22;;;;;;;11.27;5.65;;;10.30;99.90;;;;;;5040608;28;20045;-74
2023/12/17 02:56:48;;;;;;;11.88;5.78;;;10.30;99.90;;;;;;5036698;28;20045;-73
2023/12/17 02:59:14;;;;;;;11.85;5.68;;;10.30;99.90;;;;;;5044729;28;20059;-73
2023/12/17 03:01:41;;;;;;;13.27;5.72;;;10.30;99.90;;;;;;5033841;28;20481;-73
2023/12/17 03:04:07;;;;;;;10.18;5.90;;;10.30;99.90;;;;;;5042045;28;20056;-73
2023/12/17 03:06:33;;;;;;;12.82;6.05;;;10.30;99.90;;;;;;5042180;28;20063;-74
2023/12/17 03:08:59;;;;;;;13.38;6.05;;;10.30;99.90;;;;;;5038414;28;20472;-73
2023/12/17 03:11:24;;;;;;;10.57;5.30;;;10.30;99.90;;;;;;5044347;28;20491;-75
2023/12/17 03:13:50;;;;;;;10.32;5.55;;;10.20;99.90;;;;;;5042198;28;20480;-74
2023/12/17 03:16:15;;;;;;;9.75;5.88;;;10.30;99.90;;;;;;5044839;28;20094;-74
2023/12/17 03:18:41;;;;;;;11.77;9.00;;;10.30;99.90;;;;;;5041970;28;20583;-73
2023/12/17 03:21:08;;;;;;;12.98;9.20;;;10.30;99.90;;;;;;5042710;28;20485;-73
2023/12/17 03:23:34;;;;;;;8.00;5.10;;;10.30;99.90;;;;;;5039736;28;20048;-73
2023/12/17 03:26:00;;;;;;;11.10;6.10;;;10.30;99.90;;;;;;5044565;28;20469;-74
2023/12/17 03:28:25;;;;;;;7.78;5.15;;;10.30;99.90;;;;;;5044460;28;20060;-74
2023/12/17 03:30:51;;;;;;;14.30;9.88;;;10.30;99.90;;;;;;5040596;28;20097;-73
2023/12/17 03:33:16;;;;;;;8.70;5.80;;;10.30;99.90;;;;;;5042038;28;20045;-74
2023/12/17 03:35:42;;;;;;;10.38;5.63;;;10.30;99.90;;;;;;5044732;28;20041;-73
2023/12/17 03:38:08;;;;;;;10.95;5.45;;;10.30;99.90;;;;;;5040149;28;20063;-73
2023/12/17 03:40:34;;;;;;;12.48;8.68;;;10.30;99.90;;;;;;5041039;28;20086;-73
2023/12/17 03:43:00;;;;;;;11.60;8.73;;;10.30;99.90;;;;;;5044411;28;20037;-74
2023/12/17 03:45:26;;;;;;;12.30;8.80;;;10.20;99.90;;;;;;5039695;28;20115;-73
2023/12/17 03:47:51;;;;;;;11.18;5.68;;;10.30;99.90;;;;;;5044632;28;20397;-73
2023/12/17 03:50:19;;;;;;;12.60;9.05;;;10.30;99.90;;;;;;5044279;28;20037;-73
2023/12/17 03:52:46;;;;;;;;;;;10.30;99.90;;;;;;5045679;28;20041;-73
2023/12/17 03:55:12;;;;;;;13.25;9.60;;;10.40;99.90;;;;;;5040026;28;19921;-74
2023/12/17 03:57:37;;;;;;;13.00;9.35;;;10.30;99.90;;;;;;5068857;28;20048;-73
2023/12/17 04:00:03;;;;;;;12.45;9.05;;;10.30;99.90;;;;;;5041064;28;20036;-73
2023/12/17 04:02:33;;;;;;;12.25;6.32;;;10.30;99.90;;;;;;5045293;28;20065;-74
2023/12/17 04:04:59;;;;;;;14.23;6.05;;;10.30;99.90;;;;;;5045520;28;20102;-74
2023/12/17 04:07:26;;;;;;;13.95;9.95;;;10.30;99.90;;;;;;5041611;28;20068;-74
2023/12/17 04:09:52;;;;;;;11.95;6.63;;;10.30;99.90;;;;;;5044058;28;20055;-73
2023/12/17 04:12:18;;;;;;;9.37;6.23;;;10.30;99.90;;;;;;5043296;28;22047;-74
2023/12/17 04:14:44;;;;;;;13.35;6.40;;;10.20;99.90;;;;;;5038911;28;20052;-73
2023/12/17 04:17:09;;;;;;;11.63;6.18;;;10.20;99.90;;;;;;5043686;28;20064;-74
2023/12/17 04:19:35;;;;;;;13.32;10.55;;;10.10;99.90;;;;;;5041480;28;20044;-73
2023/12/17 04:22:01;;;;;;;14.02;6.95;;;10.20;99.90;;;;;;5042336;28;20075;-73
2023/12/17 04:24:26;;;;;;;12.60;10.68;;;10.20;99.90;;;;;;5042971;28;20037;-73
2023/12/17 04:26:52;;;;;;;11.20;6.55;;;10.20;99.90;;;;;;5038911;28;21011;-73
2023/12/17 04:29:18;;;;;;;12.93;6.57;;;10.20;99.90;;;;;;5042212;28;20045;-74
2023/12/17 04:31:44;;;;;;;15.13;7.00;;;10.20;99.90;;;;;;5038966;28;20052;-74
2023/12/17 04:34:11;;;;;;;12.00;6.53;;;10.20;99.90;;;;;;5042245;28;20041;-73
2023/12/17 04:36:37;;;;;;;12.00;6.45;;;10.20;99.90;;;;;;5042386;28;20094;-74
2023/12/17 04:39:03;;;;;;;13.30;8.02;;;10.10;99.90;;;;;;5043028;28;20053;-73
2023/12/17 04:41:29;;;;;;;13.93;11.32;;;10.20;99.90;;;;;;5045913;28;20503;-74
2023/12/17 04:43:54;;;;;;;12.50;10.70;;;10.20;99.90;;;;;;5037893;28;20052;-74
2023/12/17 04:46:21;;;;;;;12.00;6.97;;;10.20;99.90;;;;;;5044001;28;20044;-74
2023/12/17 04:48:46;;;;;;;15.70;7.13;;;10.20;99.90;;;;;;5046333;28;20045;-73
2023/12/17 04:51:12;;;;;;;12.07;6.80;;;10.20;99.90;;;;;;5045690;28;20099;-74
2023/12/17 04:53:38;;;;;;;12.98;6.97;;;10.20;99.90;;;;;;5046994;28;21732;-73
2023/12/17 04:56:04;;;;;;;14.23;7.40;;;10.10;99.90;;;;;;5046622;28;20592;-74
2023/12/17 04:58:30;;;;;;;12.25;6.72;;;10.10;99.90;;;;;;5045270;28;20045;-73
2023/12/17 05:00:59;;;;;;;10.25;7.50;;;10.10;99.90;;;;;;5037985;28;20044;-73
2023/12/17 05:03:25;;;;;;;13.60;11.63;;;10.10;99.90;;;;;;5043541;28;20061;-74
2023/12/17 05:05:52;;;;;;;15.38;11.38;;;10.10;99.90;;;;;;5045804;28;20044;-74
2023/12/17 05:08:18;;;;;;;11.27;7.30;;;10.20;99.90;;;;;;5041983;28;20450;-74
2023/12/17 05:10:44;;;;;;;15.07;11.48;;;10.10;99.90;;;;;;5048696;28;20037;-73
2023/12/17 05:13:10;;;;;;;15.52;11.13;;;10.10;99.90;;;;;;5046867;28;20033;-74
2023/12/17 05:15:35;;;;;;;12.63;7.88;;;10.20;99.90;;;;;;5046894;28;20033;-74
2023/12/17 05:18:01;;;;;;;11.00;6.65;;;10.10;99.90;;;;;;5043902;28;20045;-73
2023/12/17 05:20:27;;;;;;;13.10;6.90;;;10.10;99.90;;;;;;5037684;28;20037;-74
2023/12/17 05:22:53;;;;;;;12.93;7.05;;;10.10;99.90;;;;;;5035737;28;20048;-73
2023/12/17 05:25:19;;;;;;;13.93;7.35;;;10.10;99.90;;;;;;5042263;28;20509;-73
2023/12/17 05:27:44;;;;;;;11.05;6.68;;;10.10;99.90;;;;;;5040519;28;20078;-74
2023/12/17 05:30:11;;;;;;;8.90;6.43;;;10.10;99.90;;;;;;5044076;28;20175;-74
2023/12/17 05:32:36;;;;;;;10.30;6.53;;;10.00;99.90;;;;;;5041478;28;20133;-74
2023/12/17 05:35:02;;;;;;;9.23;6.25;;;10.10;99.90;;;;;;5045749;28;20504;-74
2023/12/17 05:37:28;;;;;;;11.30;6.90;;;10.00;99.90;;;;;;5046170;28;20420;-74
2023/12/17 05:39:53;;;;;;;13.45;9.88;;;10.00;99.90;;;;;;5048653;28;20045;-74
2023/12/17 05:42:19;;;;;;;9.70;6.32;;;10.10;99.90;;;;;;5046357;28;20047;-76
2023/12/17 05:44:45;;;;;;;12.70;10.63;;;10.10;99.90;;;;;;5044469;28;20210;-74
2023/12/17 05:47:10;;;;;;;10.80;6.50;;;10.10;99.90;;;;;;5042683;28;20044;-73
2023/12/17 05:49:39;;;;;;;11.27;6.53;;;10.10;99.90;;;;;;5042274;28;20095;-74
2023/12/17 05:52:07;;;;;;;8.25;6.15;;;10.10;99.90;;;;;;5046152;28;20045;-73
2023/12/17 05:54:33;;;;;;;;;;;10.00;99.90;;;;;;5045331;28;20316;-73
2023/12/17 05:56:59;;;;;;;13.63;10.27;;;10.00;99.90;;;;;;5048831;28;20562;-74
2023/12/17 05:59:24;;;;;;;9.15;5.47;;;10.00;99.90;;;;;;5043956;28;21004;-73
2023/12/17 06:01:50;;;;;;;11.60;6.75;;;10.00;99.90;;;;;;5045110;28;20041;-73
2023/12/17 06:04:16;;;;;;;7.97;5.72;;;10.00;99.90;;;;;;5047610;28;20540;-73
2023/12/17 06:06:42;;;;;;;10.73;9.02;;;10.00;99.90;;;;;;5045676;28;20393;-74
2023/12/17 06:09:08;;;;;;;10.73;8.85;;;10.10;99.90;;;;;;5045484;28;20045;-73
2023/12/17 06:11:37;;;;;;;8.88;7.97;;;10.00;99.90;;;;;;5044264;28;20044;-73
2023/12/17 06:14:03;;;;;;;11.48;5.40;;;10.00;99.90;;;;;;5045267;28;20274;-73
2023/12/17 06:16:29;;;;;;;8.45;5.50;;;9.90;99.90;;;;;;5047189;28;20029;-74
2023/12/17 06:18:55;;;;;;;10.98;7.90;;;10.00;99.90;;;;;;5037427;28;20502;-74
2023/12/17 06:21:24;;;;;;;10.20;8.50;;;9.90;99.90;;;;;;5032837;28;20048;-74
2023/12/17 06:23:51;;;;;;;8.35;5.82;;;10.00;99.90;;;;;;5040983;28;20049;-74
2023/12/17 06:26:20;;;;;;;7.13;5.25;;;9.90;99.90;;;;;;5045147;28;20656;-73
2023/12/17 06:28:46;;;;;;;12.85;5.88;;;9.90;99.90;;;;;;5041021;28;20372;-74
2023/12/17 06:31:12;;;;;;;11.35;9.50;;;9.90;99.90;;;;;;5041603;28;20041;-74
2023/12/17 06:33:38;;;;;;;9.68;6.30;;;9.90;99.90;;;;;;5044993;28;20045;-74
2023/12/17 06:36:05;;;;;;;10.77;6.70;;;9.80;99.90;;;;;;5042050;28;20048;-74
2023/12/17 06:38:30;;;;;;;10.82;6.35;;;9.80;99.90;;;;;;5039920;28;20045;-74
2023/12/17 06:40:56;;;;;;;13.40;7.63;;;9.80;99.90;;;;;;5044291;28;20035;-74
2023/12/17 06:43:22;;;;;;;10.52;6.28;;;9.80;99.90;;;;;;5044730;28;20037;-74
2023/12/17 06:45:47;;;;;;;11.15;6.57;;;9.80;99.90;;;;;;5044128;28;20040;-74
2023/12/17 06:48:13;;;;;;;12.93;10.82;;;9.80;99.90;;;;;;5044501;28;20048;-74
2023/12/17 06:50:39;;;;;;;12.23;10.93;;;9.80;99.90;;;;;;5041016;28;20593;-74
2023/12/17 06:53:04;;;;;;;12.80;9.70;;;9.80;99.90;;;;;;5043256;28;20547;-74
2023/12/17 06:55:30;;;;;;;10.43;6.90;;;9.90;99.90;;;;;;5043333;28;20040;-74
2023/12/17 06:57:56;;;;;;;14.18;7.32;;;9.80;99.90;;;;;;5036899;28;20045;-74
2023/12/17 07:00:21;;;;;;;12.23;8.00;;;9.80;99.90;;;;;;5044316;28;20496;-74
2023/12/17 07:02:47;;;;;;;10.75;8.85;;;9.80;99.90;;;;;;5036382;28;20060;-74
2023/12/17 07:05:13;;;;;;;12.10;6.97;;;9.80;99.90;;;;;;5031163;28;21115;-74
2023/12/17 07:07:39;;;;;;;13.60;8.70;;;9.70;99.90;;;;;;5040265;28;20053;-72
2023/12/17 07:10:06;;;;;;;14.10;7.20;;;9.70;99.90;;;;;;5073348;28;20104;-74
2023/12/17 07:12:32;;;;;;;;;;;9.70;99.90;;;;;;5032886;28;20052;-74
2023/12/17 07:14:57;;;;;;;14.20;12.05;;;9.70;99.90;;;;;;5035706;28;20277;-74
2023/12/17 07:17:23;;;;;;;15.30;8.38;;;9.70;99.90;;;;;;5045852;28;20028;-74
2023/12/17 07:19:49;;;;;;;18.83;9.07;;;9.70;99.90;;;;;;5039162;28;20644;-74
2023/12/17 07:22:15;;;;;;;14.63;8.77;;;9.70;99.90;;;;;;5033731;28;20041;-73
2023/12/17 07:24:40;;;;;;;21.10;9.25;;;9.60;99.90;;;;;;5033519;28;20126;-73
2023/12/17 07:27:06;;;;;;;15.20;9.20;;;9.70;99.90;;;;;;5032445;28;20060;-74
2023/12/17 07:29:32;;;;;;;13.00;7.60;;;9.60;99.90;;;;;;5035881;28;20060;-74
2023/12/17 07:31:57;;;;;;;12.68;7.50;;;9.70;99.90;;;;;;5034162;28;20044;-74
2023/12/17 07:34:23;;;;;;;14.68;8.43;;;9.60;99.90;;;;;;5046089;28;20053;-74
2023/12/17 07:36:49;;;;;;;12.65;7.20;;;9.60;99.90;;;;;;5042003;28;20044;-74
2023/12/17 07:39:15;;;;;;;12.93;7.00;;;9.60;99.90;;;;;;5039918;28;20107;-74
2023/12/17 07:41:40;;;;;;;15.55;11.07;;;9.60;99.90;;;;;;5044500;28;20137;-74
2023/12/17 07:44:06;;;;;;;10.68;6.25;;;9.60;99.90;;;;;;5039325;28;20041;-74
2023/12/17 07:46:31;;;;;;;14.18;10.25;;;9.70;99.90;;;;;;5034978;28;20102;-74
2023/12/17 07:48:57;;;;;;;10.45;5.32;;;9.70;99.90;;;;;;5036862;28;20056;-74
2023/12/17 07:51:23;;;;;;;14.18;9.63;;;9.70;99.90;;;;;;5040788;28;20404;-73
2023/12/17 07:53:48;;;;;;;11.68;5.53;;;9.70;99.90;;;;;;5036486;28;20101;-74
2023/12/17 07:56:14;;;;;;;11.50;5.55;;;9.60;99.90;;;;;;5045794;28;20045;-74
2023/12/17 07:58:40;;;;;;;14.80;10.20;;;9.60;99.90;;;;;;5044380;28;20045;-74
2023/12/17 08:01:05;;;;;;;10.00;4.80;;;9.60;99.90;;;;;;5041736;28;20481;-74
2023/12/17 08:03:31;;;;;;;9.52;4.97;;;9.60;99.90;;;;;;5040543;28;20045;-74
2023/12/17 08:05:57;;;;;;;8.50;4.53;;;9.60;99.90;;;;;;5041157;28;20452;-74
2023/12/17 08:08:23;;;;;;;13.15;9.40;;;9.60;99.90;;;;;;5044660;28;20365;-75
2023/12/17 08:10:48;;;;;;;8.80;4.53;;;9.60;99.90;;;;;;5045384;28;20040;-76
2023/12/17 08:13:15;;;;;;;11.52;4.90;;;9.60;99.90;;;;;;5044326;28;20559;-72
2023/12/17 08:15:41;;;;;;;10.20;5.27;;;9.60;99.90;;;;;;5046574;28;20052;-77
2023/12/17 08:18:06;;;;;;;10.23;4.95;;;9.60;99.90;;;;;;5048007;28;20295;-77
2023/12/17 08:20:32;;;;;;;11.25;4.40;;;9.60;99.90;;;;;;5045853;28;20073;-78
2023/12/17 08:22:57;;;;;;;14.65;8.98;;;9.50;99.90;;;;;;5037748;28;20044;-78
2023/12/17 08:25:24;;;;;;;12.55;9.07;;;9.60;99.90;;;;;;5039548;28;20045;-77
2023/12/17 08:27:50;;;;;;;9.00;4.93;;;9.60;99.90;;;;;;5059845;28;20041;-79
2023/12/17 08:30:17;;;;;;;11.10;8.15;;;9.70;99.90;;;;;;5047109;28;20057;-77
2023/12/17 08:32:44;;;;;;;12.07;8.98;;;9.60;99.90;;;;;;5041555;28;20056;-79
2023/12/17 08:35:10;;;;;;;9.95;4.65;;;9.60;99.90;;;;;;5050731;28;20396;-78
2023/12/17 08:37:35;;;;;;;10.55;4.68;;;9.60;99.90;;;;;;5035884;28;20038;-77
2023/12/17 08:40:03;;;;;;;10.98;4.82;;;9.60;99.90;;;;;;5047078;28;20067;-75
2023/12/17 08:42:29;;;;;;;12.48;8.95;;;9.50;99.90;;;;;;5046142;28;20041;-76
2023/12/17 08:44:54;;;;;;;13.55;9.00;;;9.60;99.90;;;;;;5045401;28;20486;-73
2023/12/17 08:47:20;;;;;;;12.85;9.38;;;9.60;99.90;;;;;;5040016;28;20516;-77
2023/12/17 08:49:46;;;;;;;9.73;5.10;;;9.70;99.90;;;;;;5048594;28;20451;-74
2023/12/17 08:52:12;;;;;;;9.52;5.35;;;9.60;99.90;;;;;;5056929;28;20041;-78
2023/12/17 08:54:38;;;;;;;10.48;4.68;;;9.70;99.90;;;;;;5043092;28;20154;-74
2023/12/17 08:57:04;;;;;;;14.57;9.77;;;9.60;99.90;;;;;;5046678;28;20123;-73
2023/12/17 08:59:30;;;;;;;12.48;6.13;;;9.70;99.90;;;;;;5072412;28;20056;-73
2023/12/17 09:01:55;;;;;;;11.95;6.07;;;9.70;99.90;;;;;;5046527;28;20037;-73
2023/12/17 09:04:21;;;;;;;14.70;11.18;;;9.70;99.90;;;;;;5045814;28;20599;-74
2023/12/17 09:06:47;;;;;;;14.50;12.00;;;9.70;99.90;;;;;;5041904;28;20049;-73
2023/12/17 09:09:14;;;;;;;16.50;13.18;;;9.70;99.90;;;;;;5041401;28;20056;-73
2023/12/17 09:11:40;;;;;;;16.05;13.23;;;9.80;99.90;;;;;;5046966;28;20056;-73
2023/12/17 09:14:07;;;;;;;13.73;7.90;;;9.80;99.90;;;;;;5048712;28;20059;-74
2023/12/17 09:16:37;;;;;;;19.55;16.52;;;9.80;99.90;;;;;;5031989;28;20041;-74
2023/12/17 09:19:03;;;;;;;22.70;17.05;;;9.80;99.90;;;;;;5032611;28;20053;-74
2023/12/17 09:21:29;;;;;;;19.85;17.58;;;9.80;99.90;;;;;;5043415;28;20044;-74
2023/12/17 09:23:55;;;;;;;23.25;19.08;;;9.80;99.90;;;;;;5046043;28;20385;-74
2023/12/17 09:26:20;;;;;;;25.27;10.02;;;9.80;99.90;;;;;;5047641;28;20049;-73
2023/12/17 09:28:47;;;;;;;22.70;20.17;;;9.80;99.90;;;;;;5049582;28;20072;-73
2023/12/17 09:31:13;;;;;;;27.50;22.40;;;9.90;99.90;;;;;;5043984;28;20049;-73
2023/12/17 09:33:39;;;;;;;25.48;21.85;;;9.90;99.90;;;;;;5033151;28;20448;-74
2023/12/17 09:36:07;;;;;;;27.13;22.63;;;9.90;99.90;;;;;;5041707;28;20045;-73
2023/12/17 09:38:32;;;;;;;;;;;9.90;99.90;;;;;;5040130;28;21921;-73
2023/12/17 09:40:58;;;;;;;29.08;24.25;;;9.90;99.90;;;;;;5040531;28;20026;-73
2023/12/17 09:43:25;;;;;;;27.15;24.17;;;9.80;99.90;;;;;;5040158;28;20060;-73
2023/12/17 09:45:51;;;;;;;30.38;24.63;;;9.90;99.90;;;;;;5038429;28;20091;-73
2023/12/17 09:48:18;;;;;;;29.45;25.33;;;9.90;99.90;;;;;;5046020;28;20044;-73
2023/12/17 09:50:44;;;;;;;28.75;25.67;;;9.90;99.90;;;;;;5039862;28;20546;-73
2023/12/17 09:53:10;;;;;;;30.05;24.45;;;9.90;99.90;;;;;;5044882;28;20148;-74
2023/12/17 09:55:37;;;;;;;30.27;25.52;;;10.00;99.90;;;;;;5047277;28;20047;-74
2023/12/17 09:58:04;;;;;;;30.80;25.73;;;10.00;99.90;;;;;;5046731;28;20098;-74
2023/12/17 10:00:33;;;;;;;28.08;23.40;;;10.00;99.90;;;;;;5043502;28;20052;-73
2023/12/17 10:03:05;;;;;;;28.35;23.67;;;10.00;99.90;;;;;;5043346;28;20049;-73
2023/12/17 10:05:31;;;;;;;26.33;21.83;;;10.00;99.90;;;;;;5044827;28;20622;-74
2023/12/17 10:08:01;;;;;;;26.95;22.33;;;9.90;99.90;;;;;;5034356;28;20064;-73
2023/12/17 10:10:27;;;;;;;26.77;21.95;;;9.90;99.90;;;;;;5042432;28;20128;-74
2023/12/17 10:12:53;;;;;;;27.48;22.27;;;9.90;99.90;;;;;;5030232;28;20049;-75
2023/12/17 10:15:19;;;;;;;23.98;21.33;;;9.90;99.90;;;;;;5046839;28;20047;-73
2023/12/17 10:17:45;;;;;;;23.90;20.55;;;9.90;99.90;;;;;;5046597;28;20049;-74
2023/12/17 10:20:16;;;;;;;25.17;21.15;;;9.90;99.90;;;;;;5047287;28;20401;-74
2023/12/17 10:22:59;;;;;;;22.40;19.90;;;9.90;99.90;;;;;;5046513;28;20053;-74
2023/12/17 10:25:25;;;;;;;22.50;19.00;;;9.90;99.90;;;;;;5049708;28;20051;-73
2023/12/17 10:27:56;;;;;;;20.70;18.05;;;9.90;99.90;;;;;;5046432;28;20048;-73
2023/12/17 10:30:26;;;;;;;15.43;8.57;;;9.90;99.90;;;;;;5046260;28;20450;-74
2023/12/17 10:32:53;;;;;;;18.27;8.57;;;9.90;99.90;;;;;;5045255;28;20049;-74
2023/12/17 10:35:23;;;;;;;23.40;18.73;;;9.80;99.90;;;;;;5051727;28;20090;-74
2023/12/17 10:38:00;;;;;;;17.50;8.80;;;9.80;99.90;;;;;;5047233;28;20276;-74
2023/12/17 10:40:27;;;;;;;17.42;9.40;;;9.80;99.90;;;;;;5044218;28;20068;-74
2023/12/17 10:42:55;;;;;;;16.00;8.73;;;9.80;99.90;;;;;;5044279;28;20053;-74
2023/12/17 10:45:21;;;;;;;18.02;12.68;;;9.70;99.90;;;;;;5042856;28;20129;-75
2023/12/17 10:47:52;;;;;;;21.48;8.93;;;9.70;99.90;;;;;;5047210;28;20056;-77
2023/12/17 10:50:19;;;;;;;18.70;9.18;;;9.70;99.90;;;;;;5046755;28;20059;-79
2023/12/17 10:52:47;;;;;;;17.05;8.85;;;9.80;99.90;;;;;;5048251;28;20036;-76
2023/12/17 10:55:14;;;;;;;;;;;9.70;99.90;;;;;;5031595;28;20493;-75
2023/12/17 10:57:44;;;;;;;18.98;9.23;;;9.70;99.90;;;;;;5040624;28;19924;-75
2023/12/17 11:00:12;;;;;;;17.92;11.55;;;9.70;99.90;;;;;;5046414;28;20059;-75
2023/12/17 11:02:38;;;;;;;23.17;10.02;;;9.70;99.90;;;;;;5048098;28;20060;-77
2023/12/17 11:05:05;;;;;;;19.50;9.73;;;9.70;99.90;;;;;;5037944;28;20048;-75
2023/12/17 11:07:31;;;;;;;21.60;13.73;;;9.70;99.90;;;;;;5041335;28;20045;-75
2023/12/17 11:09:58;;;;;;;22.23;13.00;;;9.70;99.90;;;;;;5059007;28;20048;-75
2023/12/17 11:12:25;;;;;;;24.45;11.82;;;9.80;99.90;;;;;;5037794;28;20404;-77
2023/12/17 11:14:52;;;;;;;22.48;12.70;;;9.80;99.90;;;;;;5046429;28;20049;-76
2023/12/17 11:17:17;;;;;;;22.17;11.15;;;9.80;99.90;;;;;;5030009;28;20048;-76
2023/12/17 11:19:57;;;;;;;25.55;11.77;;;9.80;99.90;;;;;;5046266;28;20056;-75
2023/12/17 11:22:24;;;;;;;22.88;12.50;;;9.80;99.90;;;;;;5045107;28;20067;-77
2023/12/17 11:24:52;;;;;;;25.40;14.95;;;9.80;99.90;;;;;;5045546;28;20057;-76
2023/12/17 11:27:22;;;;;;;27.45;12.75;;;9.80;99.90;;;;;;5062776;28;20076;-76
2023/12/17 11:29:47;;;;;;;30.85;13.38;;;9.80;99.90;;;;;;5046759;28;20049;-75
2023/12/17 11:32:14;;;;;;;32.55;25.63;;;9.80;99.90;;;;;;5041386;28;20043;-76
2023/12/17 11:34:40;;;;;;;24.10;13.07;;;9.90;99.90;;;;;;5044700;28;20710;-75
2023/12/17 11:37:06;;;;;;;23.27;12.00;;;9.90;99.90;;;;;;5052864;28;20045;-77
2023/12/17 11:39:34;;;;;;;29.05;15.00;;;9.90;99.90;;;;;;5041103;28;20068;-77
2023/12/17 11:41:59;;;;;;;25.90;12.80;;;9.90;99.90;;;;;;5042087;28;20125;-76
2023/12/17 11:44:25;;;;;;;30.98;13.68;;;9.90;99.90;;;;;;5050980;28;20117;-75
2023/12/17 11:46:51;;;;;;;28.95;24.55;;;9.90;99.90;;;;;;5040607;28;20127;-77
2023/12/17 11:49:26;;;;;;;29.00;13.23;;;9.90;99.90;;;;;;5041634;28;20099;-75
2023/12/17 11:51:53;;;;;;;24.92;12.68;;;9.90;99.90;;;;;;5047959;28;20041;-75
2023/12/17 11:54:19;;;;;;;32.72;25.77;;;9.90;99.90;;;;;;5047557;28;20439;-75
2023/12/17 11:56:47;;;;;;;28.83;13.88;;;9.90;99.90;;;;;;5041472;28;20660;-77
2023/12/17 11:59:13;;;;;;;23.10;12.57;;;9.90;99.90;;;;;;5050804;28;20049;-78
2023/12/17 12:01:39;;;;;;;27.85;13.95;;;9.90;99.90;;;;;;5050624;28;20052;-79
2023/12/17 12:04:05;;;;;;;31.35;24.80;;;9.90;99.90;;;;;;5037869;28;20053;-77
2023/12/17 12:06:31;;;;;;;33.42;26.10;;;9.90;99.90;;;;;;5049276;28;20120;-77
2023/12/17 12:08:59;;;;;;;30.33;25.63;;;10.00;99.90;;;;;;5051364;28;20143;-76
2023/12/17 12:11:33;;;;;;;30.17;25.70;;;9.90;99.90;;;;;;5052641;28;20511;-77
2023/12/17 12:13:59;;;;;;;28.70;13.63;;;10.00;99.90;;;;;;5044715;28;20076;-77
2023/12/17 12:16:25;;;;;;;26.10;12.50;;;10.00;99.90;;;;;;5051280;28;20081;-76
2023/12/17 12:19:02;;;;;;;25.65;12.60;;;9.90;99.90;;;;;;5049190;28;20124;-79
2023/12/17 12:21:28;;;;;;;24.27;12.73;;;9.90;99.90;;;;;;5040653;28;20076;-76
2023/12/17 12:23:55;;;;;;;23.27;11.20;;;9.90;99.90;;;;;;5036255;28;20068;-76
2023/12/17 12:26:22;;;;;;;28.00;23.23;;;9.80;99.90;;;;;;5065482;28;20056;-75
2023/12/17 12:28:59;;;;;;;24.20;11.85;;;9.80;99.90;;;;;;5050012;28;20052;-76
2023/12/17 12:31:25;;;;;;;22.83;11.30;;;9.80;99.90;;;;;;5037267;28;20106;-75
2023/12/17 12:33:59;;;;;;;27.17;22.93;;;9.90;99.90;;;;;;5033650;28;20339;-74
2023/12/17 12:36:26;;;;;;;26.33;21.98;;;9.80;99.90;;;;;;5047460;28;20128;-76